Ulan Bator, Mongolia

10:19 AM +08 on March 27, 2017 (GMT +0800)
Buyant-Ukhaa | | Change Station

Elev 4364 ft 47.84 °N, 106.77 °E | Updated 19 minutes ago

Mostly Cloudy
Mostly Cloudy
30 °F
Feels Like 30 °F
N
2
Wind Variable Wind from Variable

Today
High -- | Low -- °F
--% Chance of Precip.
Yesterday
High -- | Low -- °F
Precip. -- in
Pressure 30.09 in
Visibility 6.2 miles
Clouds Mostly Cloudy 25000 ft
Dew Point 12 °F
Humidity 47%
Rainfall 0.03 in
Snow Depth Not available.
6:41 AM 7:15 PM
Waning Crescent, 1% visible
METAR ZMUB 270200Z VRB01MPS 9999 BKN250 M01/M11 Q1019 NOSIG RMK QFE656.5 41 MOP
Pressure 30.09 in
Visibility 6.2 miles
Clouds Mostly Cloudy 25000 ft
Dew Point 12 °F
Humidity 47%
Rainfall 0.03 in
Snow Depth Not available.
6:41 AM 7:15 PM
Waning Crescent, 1% visible
METAR ZMUB 270200Z VRB01MPS 9999 BKN250 M01/M11 Q1019 NOSIG RMK QFE656.5 41 MOP

Get Severe Weather Alerts

Thanks for signing up!

Be on the lookout for a verification email in your inbox.

You'll start receiving the daily forecast at 8 AM.

×

10-Day Weather Forecast

No radar image for this location.
×

Almanac

Astronomy

Mar. 27, 2017 Rise Set
Actual Time
Civil Twilight
Nautical Twilight
Astronomical Twilight
Moon
Length of Visible Light
Length of Day
Tomorrow will be .
, % of the Moon is Illuminated

Today's Extremes

Country Highs Country Lows

Community

WunderPhotos

Upload Photos

1,962,540 photos uploaded!

WunderBlog® & News

Nearby

Air Quality

  Air Quality AQ Index Pollutant
Not available.

Snow Depth

Station Depth Elevation

Earthquake Activity

City Distance Mag. Time & Date
Minimum magnitude displayed is 2.5.

Earthquake Activity

City Distance Mag. Time & Date
Minimum magnitude displayed is 2.5.

Coastal Water Temperatures

Place Temperature

Stations

Nearby Weather Stations

Station Location Temp. Windchill Dew Point Humidity Wind Precip. Elev Updated Type